Houghton Lake, Roscommon County – Blodgett Memorial Airport (KHTL)

NameRoscommon County – Blodgett Memorial Airport
CityHoughton Lake
CountryUnited States
ICAOKHTL
IATAHTL
Altitude351 m
CoordinatesGoogle Map
Live Air TrafficLiveATC.net
METARKHTL 150456Z AUTO 00000KT 1SM BR CLR M05/M06 A3019
2018-12-15 04:56:00 Wind: North (0°) 0 m/s - Visibility: 1609.34 m - Weather: Mist - Temperature: -5 °C - Dew point: -6 °C - Humidity: 92.8% - Pressure: 1022.35 hPa
Statistics

The table below shows the detailed information of all flights to/from Houghton Lake, Roscommon County – Blodgett Memorial Airport (KHTL).